Time;durP1;ratioP1;P1;durP2;ratioP2;P2;SDS_P1;SDS_P2;PMS_P1;PMS_P2;Temp;Humidity;BMP_temperature;BMP_pressure;BME280_temperature;BME280_humidity;BME280_pressure;Samples;Min_cycle;Max_cycle;Signal;HPM_P1;HPM_P2
2022/07/23 03:43:05;;;;;;;;;;;;;;;23.51;100.00;100521.75;10579883;27;19918;-68
2022/07/23 03:48:08;;;;;;;;;;;;;;;23.26;100.00;100522.38;10579800;28;19938;-72
2022/07/23 03:53:11;;;;;;;;;;;;;;;23.01;100.00;100518.56;10579619;28;19924;-65
2022/07/23 03:58:15;;;;;;;;;;;;;;;23.09;100.00;100526.94;10579098;28;19924;-71
2022/07/23 04:03:18;;;;;;;;;;;;;;;22.13;100.00;100594.97;10579103;28;20356;-66
2022/07/23 04:08:21;;;;;;;;;;;;;;;21.88;100.00;100621.03;10577852;28;19923;-70
2022/07/23 04:13:26;;;;;;;;;;;;;;;21.95;100.00;100635.59;10578163;28;19932;-68
2022/07/23 04:18:29;;;;;;;;;;;;;;;21.70;100.00;100677.41;10578232;28;19932;-70
2022/07/23 04:23:32;;;;;;;;;;;;;;;21.60;100.00;100684.97;10578098;28;19924;-69
2022/07/23 04:28:36;;;;;;;;;;;;;;;21.48;100.00;100675.00;10578617;28;19924;-66
2022/07/23 04:33:39;;;;;;;;;;;;;;;21.44;100.00;100676.09;10577983;28;19928;-70
2022/07/23 04:38:42;;;;;;;;;;;;;;;21.45;100.00;100656.66;10583162;28;19924;-69
2022/07/23 04:43:46;;;;;;;;;;;;;;;21.43;100.00;100639.19;10619794;28;19924;-69
2022/07/23 04:48:49;;;;;;;;;;;;;;;21.47;100.00;100628.38;10619507;28;19923;-67
2022/07/23 04:53:52;;;;;;;;;;;;;;;21.47;100.00;100619.59;10593937;28;19932;-69
2022/07/23 04:58:56;;;;;;;;;;;;;;;21.53;100.00;100617.50;10590916;28;20343;-70
2022/07/23 05:04:00;;;;;;;;;;;;;;;21.53;100.00;100622.81;10590536;28;19923;-68
2022/07/23 05:09:03;;;;;;;;;;;;;;;21.49;100.00;100621.22;10590415;28;19924;-69
2022/07/23 05:14:08;;;;;;;;;;;;;;;21.45;100.00;100621.47;10590289;28;19924;-67
2022/07/23 05:19:11;;;;;;;;;;;;;;;21.59;100.00;100622.47;10589848;28;19981;-67
2022/07/23 05:24:14;;;;;;;;;;;;;;;21.67;100.00;100612.34;10589949;28;20283;-69
2022/07/23 05:29:19;;;;;;;;;;;;;;;21.78;100.00;100617.13;10589714;28;19934;-70
2022/07/23 05:34:21;;;;;;;;;;;;;;;21.94;100.00;100627.75;10589384;28;19924;-71
2022/07/23 05:39:25;;;;;;;;;;;;;;;22.08;100.00;100622.59;10588878;28;19934;-69
2022/07/23 05:44:29;;;;;;;;;;;;;;;22.12;100.00;100590.63;10589086;28;19934;-71
2022/07/23 05:49:37;;;;;;;;;;;;;;;22.22;100.00;100569.81;10588646;28;20256;-70
2022/07/23 05:54:40;;;;;;;;;;;;;;;22.38;100.00;100533.69;10588529;28;20007;-69
2022/07/23 05:59:44;;;;;;;;;;;;;;;22.57;100.00;100527.28;10588144;28;19924;-66
2022/07/23 06:04:47;;;;;;;;;;;;;;;22.71;100.00;100522.06;10587223;28;19924;-68
2022/07/23 06:09:50;;;;;;;;;;;;;;;22.84;100.00;100517.78;10588038;28;19927;-71
2022/07/23 06:14:55;;;;;;;;;;;;;;;22.94;100.00;100515.44;10587106;28;19923;-73
2022/07/23 06:19:58;;;;;;;;;;;;;;;23.04;100.00;100518.41;10587491;28;19993;-71
2022/07/23 06:25:01;;;;;;;;;;;;;;;23.18;100.00;100506.06;10587350;28;19927;-67
2022/07/23 06:30:08;;;;;;;;;;;;;;;23.26;100.00;100509.13;10587050;28;20006;-75
2022/07/23 06:35:11;;;;;;;;;;;;;;;23.39;100.00;100514.53;10587166;28;19938;-70
2022/07/23 06:40:14;;;;;;;;;;;;;;;23.48;100.00;100501.59;10585837;28;19934;-73
2022/07/23 06:45:18;;;;;;;;;;;;;;;23.55;100.00;100497.63;10586742;28;19934;-77
2022/07/23 06:50:21;;;;;;;;;;;;;;;23.70;100.00;100509.09;10586725;28;19934;-72
2022/07/23 06:55:27;;;;;;;;;;;;;;;23.78;100.00;100501.53;10585922;28;19996;-75
2022/07/23 07:00:32;;;;;;;;;;;;;;;23.83;100.00;100494.13;10586070;28;20443;-75
2022/07/23 07:05:35;;;;;;;;;;;;;;;23.77;100.00;100481.25;10585913;28;19969;-71
2022/07/23 07:10:38;;;;;;;;;;;;;;;23.96;100.00;100485.31;10585832;28;19924;-70
2022/07/23 07:15:42;;;;;;;;;;;;;;;24.02;100.00;100475.28;10585181;28;19938;-68
2022/07/23 07:20:46;;;;;;;;;;;;;;;24.19;100.00;100478.59;10585243;28;20356;-73
2022/07/23 07:25:50;;;;;;;;;;;;;;;24.22;100.00;100475.72;10585271;28;20311;-68
2022/07/23 07:30:54;;;;;;;;;;;;;;;24.25;100.00;100480.81;10585221;28;19924;-68
2022/07/23 07:35:58;;;;;;;;;;;;;;;24.35;100.00;100468.66;10585217;28;19924;-70
2022/07/23 07:41:01;;;;;;;;;;;;;;;24.42;100.00;100467.31;10584554;28;19927;-69
2022/07/23 07:46:09;;;;;;;;;;;;;;;24.45;100.00;100460.97;10584909;28;20247;-72
2022/07/23 07:51:13;;;;;;;;;;;;;;;24.50;100.00;100465.03;10584921;28;19924;-68
2022/07/23 07:56:17;;;;;;;;;;;;;;;24.57;100.00;100462.81;10584754;28;20345;-67
2022/07/23 08:01:22;;;;;;;;;;;;;;;24.59;100.00;100475.03;10584942;28;19923;-70
2022/07/23 08:06:27;;;;;;;;;;;;;;;24.72;100.00;100473.31;10584553;28;19924;-69
2022/07/23 08:11:30;;;;;;;;;;;;;;;24.97;96.71;100481.31;10584288;28;19932;-72
2022/07/23 08:16:34;;;;;;;;;;;;;;;24.95;99.64;100464.63;10584345;28;19970;-68
2022/07/23 08:21:58;;;;;;;;;;;;;;;25.04;96.16;100479.97;10584415;28;19930;-70
2022/07/23 08:27:01;;;;;;;;;;;;;;;25.19;89.75;100479.88;10587254;28;19928;-69
2022/07/23 08:32:06;;;;;;;;;;;;;;;25.09;93.05;100477.84;10591880;28;19923;-64
2022/07/23 08:37:29;;;;;;;;;;;;;;;25.13;93.56;100477.66;10591792;28;19924;-70
2022/07/23 08:42:35;;;;;;;;;;;;;;;25.19;92.47;100475.44;10591199;28;20359;-64
2022/07/23 08:47:39;;;;;;;;;;;;;;;25.28;90.05;100481.91;10592870;28;19923;-65
2022/07/23 08:52:42;;;;;;;;;;;;;;;25.28;90.64;100476.59;10591404;28;19924;-66
2022/07/23 08:57:48;;;;;;;;;;;;;;;25.42;88.30;100468.56;10590995;28;19924;-70
2022/07/23 09:02:52;;;;;;;;;;;;;;;25.51;85.92;100463.44;10591305;28;20266;-71
2022/07/23 09:08:06;;;;;;;;;;;;;;;25.59;85.97;100462.91;10590599;28;20009;-70
2022/07/23 09:13:23;;;;;;;;;;;;;;;25.81;78.99;100460.44;10590277;28;19972;-68
2022/07/23 09:18:31;;;;;;;;;;;;;;;25.90;79.11;100455.28;10590152;28;19924;-69
2022/07/23 09:23:37;;;;;;;;;;;;;;;25.95;79.50;100449.66;10589676;28;19924;-68
2022/07/23 09:28:50;;;;;;;;;;;;;;;26.05;78.28;100453.38;10589821;28;19924;-70
2022/07/23 09:34:06;;;;;;;;;;;;;;;26.12;78.90;100449.31;10589754;28;19934;-66
2022/07/23 09:39:10;;;;;;;;;;;;;;;26.05;81.61;100448.94;10589042;28;19923;-66
2022/07/23 09:44:16;;;;;;;;;;;;;;;26.34;72.48;100444.13;10589132;28;19934;-69
2022/07/23 09:49:21;;;;;;;;;;;;;;;26.59;70.83;100444.03;10589020;28;19924;-67
2022/07/23 09:54:26;;;;;;;;;;;;;;;26.73;70.59;100443.03;10588776;28;19934;-71
2022/07/23 09:59:30;;;;;;;;;;;;;;;26.98;68.34;100425.03;10588341;28;19934;-72
2022/07/23 10:04:35;;;;;;;;;;;;;;;27.67;73.75;100434.72;10588235;28;19924;-69
2022/07/23 10:09:41;;;;;;;;;;;;;;;37.08;48.97;100402.56;10588282;28;19924;-71
2022/07/23 10:14:45;;;;;;;;;;;;;;;33.44;53.75;100399.00;10587040;28;20327;-69
2022/07/23 10:19:49;;;;;;;;;;;;;;;30.12;62.91;100409.28;10587485;28;19924;-69
2022/07/23 10:25:04;;;;;;;;;;;;;;;29.16;65.78;100411.59;10587246;28;19924;-69
2022/07/23 10:30:18;;;;;;;;;;;;;;;28.98;61.39;100406.91;10587532;28;20244;-71
2022/07/23 10:35:27;;;;;;;;;;;;;;;28.90;62.18;100402.25;10587280;28;19946;-70
2022/07/23 10:40:31;;;;;;;;;;;;;;;29.04;58.43;100404.59;10586661;28;19924;-69
2022/07/23 10:45:36;;;;;;;;;;;;;;;29.16;57.14;100405.38;10586481;28;20275;-68
2022/07/23 10:50:41;;;;;;;;;;;;;;;29.05;59.77;100400.06;10586085;28;19927;-69
2022/07/23 10:55:49;;;;;;;;;;;;;;;29.19;57.98;100407.78;10586320;28;19930;-71
2022/07/23 11:00:53;;;;;;;;;;;;;;;29.37;57.88;100398.19;10586242;28;19930;-66
2022/07/23 11:05:57;;;;;;;;;;;;;;;29.64;58.90;100393.06;10585874;28;19930;-69
2022/07/23 11:11:10;;;;;;;;;;;;;;;29.89;56.98;100386.44;10585627;28;20351;-69
2022/07/23 11:16:18;;;;;;;;;;;;;;;30.23;54.50;100385.06;10585388;28;19967;-67
2022/07/23 11:21:40;;;;;;;;;;;;;;;30.36;56.65;100393.69;10585582;28;19923;-71
2022/07/23 11:26:49;;;;;;;;;;;;;;;30.50;55.93;100388.78;10585514;28;19969;-67
2022/07/23 11:31:52;;;;;;;;;;;;;;;30.34;58.53;100387.63;10584986;28;19924;-68
2022/07/23 11:36:55;;;;;;;;;;;;;;;30.60;56.29;100381.56;10584981;28;19924;-67
2022/07/23 11:42:00;;;;;;;;;;;;;;;31.00;54.64;100388.59;10584626;28;19924;-70
2022/07/23 11:47:04;;;;;;;;;;;;;;;31.13;54.47;100383.78;10585099;28;19934;-66
2022/07/23 11:52:08;;;;;;;;;;;;;;;31.38;54.10;100369.72;10584549;28;19924;-66
2022/07/23 11:57:12;;;;;;;;;;;;;;;31.75;53.23;100370.56;10584544;28;19924;-69
2022/07/23 12:02:15;;;;;;;;;;;;;;;32.07;53.34;100362.00;10588369;28;20246;-69
2022/07/23 12:07:39;;;;;;;;;;;;;;;32.29;52.82;100356.22;10592583;28;20023;-66
2022/07/23 12:12:44;;;;;;;;;;;;;;;32.38;49.07;100360.63;10589721;28;20361;-66
2022/07/23 12:17:48;;;;;;;;;;;;;;;32.62;48.50;100345.59;10592443;28;19924;-65
2022/07/23 12:22:56;;;;;;;;;;;;;;;32.80;48.58;100332.13;10592532;28;20353;-67
2022/07/23 12:28:02;;;;;;;;;;;;;;;32.82;49.31;100330.13;10592271;28;19923;-67
2022/07/23 12:33:06;;;;;;;;;;;;;;;32.39;50.27;100325.53;10592147;28;20010;-70
2022/07/23 12:38:10;;;;;;;;;;;;;;;32.40;48.76;100315.69;10591497;28;20260;-69
2022/07/23 12:43:21;;;;;;;;;;;;;;;32.61;49.75;100317.03;10591271;28;19934;-67
2022/07/23 12:48:25;;;;;;;;;;;;;;;32.93;49.48;100308.34;10591444;28;19928;-71
2022/07/23 12:53:30;;;;;;;;;;;;;;;33.03;48.80;100301.00;10591282;28;19928;-69
2022/07/23 12:58:45;;;;;;;;;;;;;;;33.16;48.13;100287.97;10590959;28;19924;-67
2022/07/23 13:03:57;;;;;;;;;;;;;;;33.14;48.25;100281.91;10590521;28;19924;-67
2022/07/23 13:09:00;;;;;;;;;;;;;;;32.71;49.29;100271.22;10590833;28;19970;-70
2022/07/23 13:14:25;;;;;;;;;;;;;;;32.62;47.84;100272.16;10590051;28;20298;-66
2022/07/23 13:19:29;;;;;;;;;;;;;;;32.51;48.47;100265.19;10590024;28;19927;-68
2022/07/23 13:24:32;;;;;;;;;;;;;;;32.49;48.49;100267.22;10589764;28;19924;-70
2022/07/23 13:29:36;;;;;;;;;;;;;;;32.63;48.58;100268.47;10589545;28;19942;-67
2022/07/23 13:34:39;;;;;;;;;;;;;;;32.16;49.37;100275.13;10589283;28;19934;-68
2022/07/23 13:39:42;;;;;;;;;;;;;;;31.72;49.18;100278.72;10588875;28;20271;-69
2022/07/23 13:44:50;;;;;;;;;;;;;;;31.22;49.56;100289.84;10588947;28;20238;-67
2022/07/23 13:49:52;;;;;;;;;;;;;;;31.40;52.12;100261.25;10589099;28;20253;-66
2022/07/23 13:54:55;;;;;;;;;;;;;;;31.62;52.23;100255.47;10588604;28;19930;-66
2022/07/23 14:00:00;;;;;;;;;;;;;;;31.10;53.26;100272.25;10588669;28;19934;-66
2022/07/23 14:05:07;;;;;;;;;;;;;;;30.67;52.91;100282.66;10588107;28;19935;-68
2022/07/23 14:10:10;;;;;;;;;;;;;;;30.35;53.94;100275.00;10588079;28;19934;-67
2022/07/23 14:15:15;;;;;;;;;;;;;;;30.01;55.59;100279.03;10588030;28;19932;-72
2022/07/23 14:20:18;;;;;;;;;;;;;;;29.75;58.82;100267.22;10587813;28;19935;-70
2022/07/23 14:25:21;;;;;;;;;;;;;;;29.53;60.60;100268.25;10586490;28;19924;-68
2022/07/23 14:30:25;;;;;;;;;;;;;;;29.37;63.15;100267.94;10587343;28;19924;-69
2022/07/23 14:35:36;;;;;;;;;;;;;;;29.16;64.36;100283.25;10587004;28;19924;-68
2022/07/23 14:40:39;;;;;;;;;;;;;;;28.96;64.02;100289.44;10586695;28;19924;-68
2022/07/23 14:45:44;;;;;;;;;;;;;;;28.82;62.53;100313.00;10586390;28;20014;-69
2022/07/23 14:50:51;;;;;;;;;;;;;;;28.23;63.69;100380.28;10586567;28;19924;-67
2022/07/23 14:55:55;;;;;;;;;;;;;;;27.52;68.29;100437.75;10585315;28;20340;-70
2022/07/23 15:00:59;;;;;;;;;;;;;;;26.78;72.63;100463.03;10586045;28;19983;-66
2022/07/23 15:06:03;;;;;;;;;;;;;;;25.77;86.57;100485.53;10585686;28;20221;-68
2022/07/23 15:11:08;;;;;;;;;;;;;;;23.56;100.00;100464.88;10585539;28;19924;-70
2022/07/23 15:16:13;;;;;;;;;;;;;;;23.02;100.00;100497.28;10585939;28;19932;-70
2022/07/23 15:21:17;;;;;;;;;;;;;;;22.65;100.00;100517.13;10585323;28;20081;-70
2022/07/23 15:26:20;;;;;;;;;;;;;;;22.59;100.00;100546.56;10585054;28;20329;-69
2022/07/23 15:31:25;;;;;;;;;;;;;;;22.34;100.00;100567.38;10585080;28;19924;-68
2022/07/23 15:36:30;;;;;;;;;;;;;;;22.25;100.00;100589.03;10584927;28;19924;-68
2022/07/23 15:41:33;;;;;;;;;;;;;;;22.26;100.00;100585.44;10585212;28;20256;-69
2022/07/23 15:46:39;;;;;;;;;;;;;;;22.29;100.00;100587.06;10584598;28;20004;-68
2022/07/23 15:51:44;;;;;;;;;;;;;;;22.36;100.00;100588.44;10584575;28;19924;-71
2022/07/23 15:56:49;;;;;;;;;;;;;;;22.31;100.00;100591.34;10583695;28;19923;-66
2022/07/23 16:01:54;;;;;;;;;;;;;;;22.26;100.00;100585.44;10584534;28;20027;-68
2022/07/23 16:06:58;;;;;;;;;;;;;;;22.24;100.00;100589.97;10584332;28;19927;-68
2022/07/23 16:12:01;;;;;;;;;;;;;;;22.15;100.00;100608.97;10584426;28;19934;-70
2022/07/23 16:17:06;;;;;;;;;;;;;;;22.02;100.00;100621.13;10584366;28;19924;-71
2022/07/23 16:22:10;;;;;;;;;;;;;;;21.94;100.00;100623.31;10584198;28;19923;-69
2022/07/23 16:27:13;;;;;;;;;;;;;;;21.91;100.00;100605.00;10226022;28;9999750;-70
2022/07/23 16:32:18;;;;;;;;;;;;;;;21.91;100.00;100614.69;10578437;28;19938;-70
2022/07/23 16:37:21;;;;;;;;;;;;;;;21.85;100.00;100592.09;10578742;28;19927;-71
2022/07/23 16:42:24;;;;;;;;;;;;;;;21.77;100.00;100596.91;10577775;28;19924;-69
2022/07/23 16:47:28;;;;;;;;;;;;;;;21.85;100.00;100536.56;10580121;28;20361;-72
2022/07/23 16:52:32;;;;;;;;;;;;;;;21.82;100.00;100509.47;10586256;28;19938;-70
2022/07/23 16:57:35;;;;;;;;;;;;;;;21.71;100.00;100488.84;10585166;28;19928;-69
2022/07/23 17:02:39;;;;;;;;;;;;;;;21.71;100.00;100467.72;10584759;28;19924;-69
2022/07/23 17:07:42;;;;;;;;;;;;;;;21.73;100.00;100426.22;10585143;28;19947;-70
2022/07/23 17:12:45;;;;;;;;;;;;;;;21.75;100.00;100432.28;10584337;28;19938;-70
2022/07/23 17:17:50;;;;;;;;;;;;;;;21.84;100.00;100429.16;10584682;28;19934;-70
2022/07/23 17:22:53;;;;;;;;;;;;;;;21.94;100.00;100403.06;10584894;28;20459;-72
2022/07/23 17:27:56;;;;;;;;;;;;;;;21.96;100.00;100390.63;10619123;27;19939;-67
2022/07/23 17:33:01;;;;;;;;;;;;;;;21.83;100.00;100397.53;10626716;27;19939;-71
2022/07/23 17:38:09;;;;;;;;;;;;;;;21.85;100.00;100383.28;10626720;27;19923;-69
2022/07/23 17:43:12;;;;;;;;;;;;;;;21.80;100.00;100377.41;10625731;27;19934;-71
2022/07/23 17:48:16;;;;;;;;;;;;;;;21.99;100.00;100349.00;10625889;27;19924;-68
2022/07/23 17:53:19;;;;;;;;;;;;;;;21.93;100.00;100337.94;10625598;27;20026;-68
2022/07/23 17:58:22;;;;;;;;;;;;;;;21.82;100.00;100335.03;10625163;27;20434;-68
2022/07/23 18:03:27;;;;;;;;;;;;;;;21.93;100.00;100332.66;10625908;27;19989;-71
2022/07/23 18:08:30;;;;;;;;;;;;;;;21.80;100.00;100348.34;10625229;27;19927;-69
2022/07/23 18:13:33;;;;;;;;;;;;;;;22.00;100.00;100345.44;10625150;27;19959;-69
2022/07/23 18:18:38;;;;;;;;;;;;;;;22.00;100.00;100334.88;10624790;27;19927;-69
2022/07/23 18:23:41;;;;;;;;;;;;;;;21.68;100.00;100359.56;10606676;27;20466;-69
2022/07/23 18:28:44;;;;;;;;;;;;;;;21.77;100.00;100354.66;10581742;27;19943;-69
2022/07/23 18:33:49;;;;;;;;;;;;;;;21.71;100.00;100346.16;10581238;28;20264;-68
2022/07/23 18:38:52;;;;;;;;;;;;;;;21.81;100.00;100358.00;10580716;28;19924;-70
2022/07/23 18:44:05;;;;;;;;;;;;;;;21.72;100.00;100356.69;10580525;28;19928;-67
2022/07/23 18:49:09;;;;;;;;;;;;;;;21.49;100.00;100372.06;10581082;28;19934;-72
2022/07/23 18:54:13;;;;;;;;;;;;;;;21.37;100.00;100380.66;10580800;28;19935;-69
2022/07/23 18:59:16;;;;;;;;;;;;;;;21.54;100.00;100383.25;10580790;28;19937;-71
2022/07/23 19:04:27;;;;;;;;;;;;;;;21.62;100.00;100381.88;10580407;28;19934;-68
2022/07/23 19:09:30;;;;;;;;;;;;;;;21.54;100.00;100385.88;10579629;28;19936;-68
2022/07/23 19:14:36;;;;;;;;;;;;;;;21.56;100.00;100392.81;10580028;28;19932;-68
2022/07/23 19:19:40;;;;;;;;;;;;;;;21.43;100.00;100402.31;10579635;28;19934;-69
2022/07/23 19:24:45;;;;;;;;;;;;;;;21.60;100.00;100406.69;10587336;27;19995;-69
2022/07/23 19:29:48;;;;;;;;;;;;;;;21.81;100.00;100415.28;10623087;27;19928;-66
2022/07/23 19:34:52;;;;;;;;;;;;;;;21.67;100.00;100416.81;10621700;27;19924;-66
2022/07/23 19:39:55;;;;;;;;;;;;;;;21.64;100.00;100424.94;10621675;27;20308;-66
2022/07/23 19:44:58;;;;;;;;;;;;;;;21.70;100.00;100427.25;10621335;28;19935;-65
2022/07/23 19:50:03;;;;;;;;;;;;;;;21.77;100.00;100426.00;10622410;28;19923;-68
2022/07/23 19:55:08;;;;;;;;;;;;;;;21.76;100.00;100420.78;10621489;28;19923;-68
2022/07/23 20:00:12;;;;;;;;;;;;;;;21.72;100.00;100425.38;10621047;28;19927;-66
2022/07/23 20:05:16;;;;;;;;;;;;;;;21.67;100.00;100430.03;10620978;28;19924;-67
2022/07/23 20:10:19;;;;;;;;;;;;;;;21.59;100.00;100450.75;10621258;28;19934;-66
2022/07/23 20:15:23;;;;;;;;;;;;;;;21.63;100.00;100454.06;10620899;28;19980;-67
2022/07/23 20:20:27;;;;;;;;;;;;;;;21.75;100.00;100467.50;10620752;27;19931;-66
2022/07/23 20:25:30;;;;;;;;;;;;;;;21.68;100.00;100489.91;10613005;27;19942;-65
2022/07/23 20:30:33;;;;;;;;;;;;;;;21.82;100.00;100483.91;10587021;28;19930;-67
2022/07/23 20:35:38;;;;;;;;;;;;;;;21.77;100.00;100494.72;10586367;28;19932;-66
2022/07/23 20:40:41;;;;;;;;;;;;;;;21.81;100.00;100498.06;10585983;28;19927;-66
2022/07/23 20:45:49;;;;;;;;;;;;;;;21.79;100.00;100521.91;10585829;28;19934;-67
2022/07/23 20:50:53;;;;;;;;;;;;;;;21.73;100.00;100516.91;10586111;28;20461;-68
2022/07/23 20:55:58;;;;;;;;;;;;;;;21.75;100.00;100524.75;10586032;28;19924;-69
2022/07/23 21:01:02;;;;;;;;;;;;;;;21.76;100.00;100522.03;10590789;28;19972;-70
2022/07/23 21:06:06;;;;;;;;;;;;;;;21.67;100.00;100537.53;10590772;28;19924;-70
2022/07/23 21:11:09;;;;;;;;;;;;;;;21.56;100.00;100543.38;10590671;28;20255;-71
2022/07/23 21:16:12;;;;;;;;;;;;;;;21.56;100.00;100546.03;10590860;28;19930;-74
2022/07/23 21:21:17;;;;;;;;;;;;;;;21.63;100.00;100535.97;10590351;28;19924;-66
2022/07/23 21:26:20;;;;;;;;;;;;;;;21.82;100.00;100525.31;10589911;28;19924;-72
2022/07/23 21:31:33;;;;;;;;;;;;;;;21.67;100.00;100541.00;10590210;28;20014;-74
2022/07/23 21:36:38;;;;;;;;;;;;;;;21.70;100.00;100537.38;10589409;28;19936;-71
2022/07/23 21:41:41;;;;;;;;;;;;;;;21.62;100.00;100540.41;10589315;28;20264;-72
2022/07/23 21:46:44;;;;;;;;;;;;;;;21.71;100.00;100544.34;10589037;28;19949;-73
2022/07/23 21:51:49;;;;;;;;;;;;;;;21.72;100.00;100552.22;10589369;28;20237;-70
2022/07/23 21:56:52;;;;;;;;;;;;;;;21.77;100.00;100557.25;10588191;28;19930;-72
2022/07/23 22:01:55;;;;;;;;;;;;;;;21.74;100.00;100554.78;10588776;28;19934;-73
2022/07/23 22:06:59;;;;;;;;;;;;;;;21.60;100.00;100560.78;10588462;28;19924;-71
2022/07/23 22:12:04;;;;;;;;;;;;;;;21.65;100.00;100571.97;10588151;28;19924;-70
2022/07/23 22:17:07;;;;;;;;;;;;;;;21.64;100.00;100569.41;10588044;28;20019;-73
2022/07/23 22:22:11;;;;;;;;;;;;;;;21.43;100.00;100583.72;10587977;28;19924;-70
2022/07/23 22:27:14;;;;;;;;;;;;;;;21.38;100.00;100583.09;10587530;28;19924;-69
2022/07/23 22:32:17;;;;;;;;;;;;;;;21.42;100.00;100580.22;10587737;28;19928;-72
2022/07/23 22:37:27;;;;;;;;;;;;;;;21.47;100.00;100587.88;10587542;28;19924;-68
2022/07/23 22:42:30;;;;;;;;;;;;;;;21.51;100.00;100584.16;10586759;28;19923;-71
2022/07/23 22:47:34;;;;;;;;;;;;;;;21.58;100.00;100589.06;10586333;28;19935;-73
2022/07/23 22:52:39;;;;;;;;;;;;;;;21.59;100.00;100587.25;10586801;28;20221;-70
2022/07/23 22:57:42;;;;;;;;;;;;;;;21.65;100.00;100582.53;10586652;28;19928;-73
2022/07/23 23:02:45;;;;;;;;;;;;;;;21.63;100.00;100576.47;10586564;28;19924;-71
2022/07/23 23:07:50;;;;;;;;;;;;;;;21.62;100.00;100576.56;10586265;28;19923;-69
2022/07/23 23:12:53;;;;;;;;;;;;;;;21.60;100.00;100581.06;10587066;28;19924;-70
2022/07/23 23:17:56;;;;;;;;;;;;;;;21.66;100.00;100573.66;10585636;28;19923;-68
2022/07/23 23:23:00;;;;;;;;;;;;;;;21.60;100.00;100576.66;10585830;28;19924;-70
2022/07/23 23:28:03;;;;;;;;;;;;;;;21.68;100.00;100566.53;10585597;28;19934;-71
2022/07/23 23:33:06;;;;;;;;;;;;;;;21.72;100.00;100565.44;10585580;28;19924;-68
2022/07/23 23:38:10;;;;;;;;;;;;;;;21.74;100.00;100563.53;10585079;28;19924;-68
2022/07/23 23:43:13;;;;;;;;;;;;;;;21.70;100.00;100545.28;10584938;28;19941;-67
2022/07/23 23:48:16;;;;;;;;;;;;;;;21.79;100.00;100543.03;10584945;28;19937;-71
2022/07/23 23:53:21;;;;;;;;;;;;;;;21.79;100.00;100544.84;10585081;28;19924;-65
2022/07/23 23:58:24;;;;;;;;;;;;;;;21.77;100.00;100530.81;10589630;28;19934;-64
